Time;durP1;ratioP1;P1;durP2;ratioP2;P2;SDS_P1;SDS_P2;PMS_P1;PMS_P2;Temp;Humidity;BMP_temperature;BMP_pressure;BME280_temperature;BME280_humidity;BME280_pressure;Samples;Min_cycle;Max_cycle;Signal;HPM_P1;HPM_P2
2021/06/21 00:00:43;;;;;;;4.03;0.70;;;18.90;99.90;;;;;;5034275;28;20026;-79
2021/06/21 00:03:09;;;;;;;2.17;0.52;;;18.90;99.90;;;;;;5034304;28;20017;-80
2021/06/21 00:05:35;;;;;;;2.90;0.68;;;18.90;99.90;;;;;;5034246;28;20557;-79
2021/06/21 00:08:00;;;;;;;4.15;0.90;;;18.80;99.90;;;;;;5035247;28;20424;-79
2021/06/21 00:10:26;;;;;;;2.75;0.80;;;18.70;99.90;;;;;;5033954;28;20044;-80
2021/06/21 00:12:53;;;;;;;4.10;1.02;;;18.60;99.90;;;;;;5034857;28;20035;-79
2021/06/21 00:15:21;;;;;;;4.13;0.68;;;18.60;99.90;;;;;;5071448;28;20032;-79
2021/06/21 00:17:47;;;;;;;4.88;0.95;;;18.70;99.90;;;;;;5074637;28;20408;-80
2021/06/21 00:20:15;;;;;;;3.90;0.80;;;18.80;99.90;;;;;;5078903;28;20024;-80
2021/06/21 00:22:42;;;;;;;3.38;1.10;;;18.80;99.90;;;;;;5061135;28;20115;-80
2021/06/21 00:25:08;;;;;;;3.25;0.85;;;18.90;99.90;;;;;;5037738;28;20033;-79
2021/06/21 00:27:35;;;;;;;5.28;0.80;;;19.00;99.90;;;;;;5020943;28;20040;-81
2021/06/21 00:30:03;;;;;;;2.65;0.70;;;18.90;99.90;;;;;;5038768;28;20033;-81
2021/06/21 00:32:29;;;;;;;5.93;0.60;;;18.90;99.90;;;;;;5036198;28;20040;-79
2021/06/21 00:34:54;;;;;;;2.83;1.10;;;18.90;99.90;;;;;;5037195;28;20026;-80
2021/06/21 00:37:20;;;;;;;4.93;0.75;;;19.00;99.90;;;;;;5037219;28;20021;-80
2021/06/21 00:39:46;;;;;;;3.53;0.80;;;19.00;99.90;;;;;;5036744;28;20041;-80
2021/06/21 00:42:12;;;;;;;5.38;0.98;;;19.00;99.90;;;;;;5036915;28;20029;-79
2021/06/21 00:44:37;;;;;;;6.20;0.95;;;19.00;99.90;;;;;;5035545;28;20053;-80
2021/06/21 00:47:03;;;;;;;4.13;0.77;;;19.00;99.90;;;;;;5016964;28;20429;-81
2021/06/21 00:49:30;;;;;;;2.20;0.70;;;19.00;99.90;;;;;;5018545;28;20027;-80
2021/06/21 00:51:57;;;;;;;5.90;0.80;;;19.00;99.90;;;;;;5035693;28;20049;-79
2021/06/21 00:54:23;;;;;;;3.67;0.85;;;18.80;99.90;;;;;;5049390;28;20428;-80
2021/06/21 00:56:49;;;;;;;3.28;1.20;;;18.80;99.90;;;;;;5055251;28;20021;-80
2021/06/21 00:59:15;;;;;;;2.70;0.73;;;18.70;99.90;;;;;;5048374;28;20397;-80
2021/06/21 01:01:41;;;;;;;4.07;0.88;;;18.80;99.90;;;;;;5033482;28;20034;-79
2021/06/21 01:04:06;;;;;;;6.03;0.80;;;18.80;99.90;;;;;;5017010;28;20083;-81
2021/06/21 01:06:32;;;;;;;3.78;0.88;;;18.80;99.90;;;;;;5035090;28;20478;-80
2021/06/21 01:08:58;;;;;;;3.72;0.80;;;18.70;99.90;;;;;;5035037;28;20028;-80
2021/06/21 01:11:47;;;;;;;8.85;0.82;;;18.70;99.90;;;;;;5034841;28;20049;-79
2021/06/21 01:14:21;;;;;;;4.50;1.50;;;18.70;99.90;;;;;;5052922;28;20111;-80
2021/06/21 01:16:59;;;;;;;6.57;0.73;;;18.50;99.90;;;;;;5042186;28;20079;-80
2021/06/21 01:19:43;;;;;;;2.83;0.80;;;18.60;99.90;;;;;;5034638;28;20049;-79
2021/06/21 01:22:46;;;;;;;6.07;0.80;;;18.70;99.90;;;;;;5033045;28;20413;-80
2021/06/21 01:25:46;;;;;;;7.18;1.42;;;18.50;99.90;;;;;;5035341;28;20033;-80
2021/06/21 01:28:41;;;;;;;4.72;0.98;;;18.30;99.90;;;;;;5034370;28;20498;-80
2021/06/21 01:31:24;;;;;;;3.08;0.60;;;18.00;99.90;;;;;;4965313;28;20043;-79
2021/06/21 01:33:51;;;;;;;2.47;0.65;;;18.10;99.90;;;;;;5037090;28;20017;-80
2021/06/21 01:36:20;;;;;;;4.25;0.75;;;18.10;99.90;;;;;;5036814;28;20026;-80
2021/06/21 01:38:59;;;;;;;5.85;0.95;;;18.00;99.90;;;;;;5037006;28;20156;-81
2021/06/21 01:41:31;;;;;;;5.40;0.98;;;18.10;99.90;;;;;;5038261;28;20030;-78
2021/06/21 01:43:59;;;;;;;5.55;0.73;;;17.90;99.90;;;;;;5020310;28;20561;-79
2021/06/21 01:46:31;;;;;;;9.02;0.65;;;17.80;99.90;;;;;;5019368;28;20033;-81
2021/06/21 01:49:01;;;;;;;3.33;0.80;;;17.90;99.90;;;;;;5038983;28;20022;-81
2021/06/21 01:51:30;;;;;;;7.60;0.77;;;17.90;99.90;;;;;;5020338;28;20022;-80
2021/06/21 01:53:59;;;;;;;6.03;1.13;;;18.00;99.90;;;;;;5019899;28;20116;-80
2021/06/21 01:56:29;;;;;;;5.07;0.77;;;17.70;99.90;;;;;;5059984;22;20124;-80
2021/06/21 01:58:57;;;;;;;4.03;0.68;;;17.70;99.90;;;;;;5072625;28;20079;-80
2021/06/21 02:01:23;;;;;;;7.40;0.90;;;17.70;99.90;;;;;;5061850;28;20021;-80
2021/06/21 02:03:54;;;;;;;5.53;0.73;;;17.60;99.90;;;;;;5062282;28;20024;-80
2021/06/21 02:06:21;;;;;;;5.43;0.70;;;17.70;99.90;;;;;;5065912;28;20032;-79
2021/06/21 02:08:49;;;;;;;3.83;0.73;;;17.60;99.90;;;;;;5073657;28;20025;-80
2021/06/21 02:11:15;;;;;;;9.02;1.15;;;17.40;99.90;;;;;;5069301;28;20088;-79
2021/06/21 02:13:43;;;;;;;4.30;0.68;;;17.40;99.90;;;;;;5072909;28;20021;-80
2021/06/21 02:16:10;;;;;;;5.10;0.60;;;17.40;99.90;;;;;;5055141;28;20017;-80
2021/06/21 02:18:36;;;;;;;6.03;0.90;;;17.30;99.90;;;;;;5057804;28;20018;-79
2021/06/21 02:21:04;;;;;;;6.82;0.95;;;17.30;99.90;;;;;;5033927;28;20045;-80
2021/06/21 02:23:30;;;;;;;3.72;1.05;;;17.30;99.90;;;;;;5035557;28;20014;-80
2021/06/21 02:26:00;;;;;;;6.72;0.68;;;17.50;99.90;;;;;;5037327;28;20121;-80
2021/06/21 02:28:27;;;;;;;3.83;0.65;;;17.60;99.90;;;;;;5037067;28;20490;-80
2021/06/21 02:30:56;;;;;;;5.53;0.90;;;17.70;99.90;;;;;;5036750;28;20033;-80
2021/06/21 02:33:21;;;;;;;6.25;1.08;;;17.80;99.90;;;;;;5035510;28;20032;-80
2021/06/21 02:35:47;;;;;;;4.38;1.10;;;17.80;99.90;;;;;;5054225;28;20348;-80
2021/06/21 02:38:14;;;;;;;4.57;0.90;;;17.80;99.90;;;;;;5077341;28;20070;-80
2021/06/21 02:40:40;;;;;;;7.63;1.15;;;17.70;99.90;;;;;;5058788;28;20023;-80
2021/06/21 02:43:06;;;;;;;4.68;0.80;;;17.80;99.90;;;;;;5076447;28;20021;-80
2021/06/21 02:45:33;;;;;;;5.70;1.15;;;17.70;99.90;;;;;;5043629;28;20048;-80
2021/06/21 02:48:00;;;;;;;3.75;0.73;;;17.70;99.90;;;;;;5019283;28;20033;-79
2021/06/21 02:50:26;;;;;;;7.40;2.03;;;17.70;99.90;;;;;;5036952;28;20029;-80
2021/06/21 02:53:00;;;;;;;3.95;0.70;;;17.80;99.90;;;;;;5039472;28;20147;-80
2021/06/21 02:55:54;;;;;;;3.63;0.75;;;17.60;99.90;;;;;;5027378;28;20144;-80
2021/06/21 02:58:27;;;;;;;7.70;1.05;;;17.60;99.90;;;;;;5029723;28;20045;-80
2021/06/21 03:00:54;;;;;;;4.43;0.52;;;17.60;99.90;;;;;;5036900;28;20034;-80
2021/06/21 03:03:31;;;;;;;5.47;1.75;;;17.50;99.90;;;;;;5036585;28;20029;-80
2021/06/21 03:05:59;;;;;;;5.30;0.80;;;17.60;99.90;;;;;;5035688;28;20723;-79
2021/06/21 03:08:27;;;;;;;7.93;1.00;;;17.50;99.90;;;;;;5036361;28;20041;-80
2021/06/21 03:10:54;;;;;;;2.13;0.57;;;17.50;99.90;;;;;;5048755;28;20055;-79
2021/06/21 03:13:20;;;;;;;7.15;0.90;;;17.40;99.90;;;;;;5035425;28;20112;-79
2021/06/21 03:15:48;;;;;;;5.97;1.02;;;17.30;99.90;;;;;;5017838;28;20052;-80
2021/06/21 03:18:14;;;;;;;3.25;0.88;;;17.20;99.90;;;;;;5034762;28;20616;-80
2021/06/21 03:20:40;;;;;;;3.65;1.10;;;17.30;99.90;;;;;;5035001;28;20037;-80
2021/06/21 03:23:06;;;;;;;5.00;1.00;;;17.20;99.90;;;;;;5018412;28;20029;-80
2021/06/21 03:25:33;;;;;;;7.72;1.35;;;17.40;99.90;;;;;;5018031;28;20028;-79
2021/06/21 03:28:11;;;;;;;7.05;0.90;;;17.50;99.90;;;;;;5035191;28;20028;-79
2021/06/21 03:30:42;;;;;;;5.65;0.93;;;17.60;99.90;;;;;;5035708;28;20064;-80
2021/06/21 03:33:08;;;;;;;7.57;1.10;;;17.60;99.90;;;;;;5035269;28;20028;-80
2021/06/21 03:35:33;;;;;;;4.63;0.60;;;17.70;99.90;;;;;;5034426;28;20021;-80
2021/06/21 03:38:10;;;;;;;4.88;0.88;;;17.60;99.90;;;;;;5036222;28;20026;-79
2021/06/21 03:40:36;;;;;;;4.75;0.80;;;17.50;99.90;;;;;;5018513;28;20026;-79
2021/06/21 03:43:02;;;;;;;5.15;1.02;;;17.40;99.90;;;;;;5035389;28;20040;-80
2021/06/21 03:45:27;;;;;;;3.78;0.77;;;17.20;99.90;;;;;;5035611;28;20383;-80
2021/06/21 03:47:53;;;;;;;9.27;0.88;;;17.10;99.90;;;;;;5035430;28;20033;-80
2021/06/21 03:50:18;;;;;;;8.00;1.15;;;17.10;99.90;;;;;;5017051;28;20099;-80
2021/06/21 03:52:44;;;;;;;10.52;1.42;;;17.10;99.90;;;;;;5037925;28;20430;-79
2021/06/21 03:55:10;;;;;;;5.57;1.08;;;17.20;99.90;;;;;;5052316;28;20044;-80
2021/06/21 03:57:44;;;;;;;5.43;0.73;;;17.10;99.90;;;;;;5034937;28;20177;-79
2021/06/21 04:00:16;;;;;;;6.38;1.08;;;17.10;99.90;;;;;;5036228;28;20106;-80
2021/06/21 04:02:42;;;;;;;3.60;0.82;;;17.10;99.90;;;;;;5063761;28;20025;-80
2021/06/21 04:05:08;;;;;;;4.50;0.85;;;17.00;99.90;;;;;;5046458;28;20192;-80
2021/06/21 04:07:34;;;;;;;5.05;0.80;;;17.00;99.90;;;;;;5017197;28;20032;-80
2021/06/21 04:10:01;;;;;;;4.88;0.80;;;17.10;99.90;;;;;;5053837;28;20036;-80
2021/06/21 04:12:27;;;;;;;10.00;1.02;;;17.10;99.90;;;;;;5064457;28;20025;-79
2021/06/21 04:14:52;;;;;;;5.47;0.90;;;17.20;99.90;;;;;;5033909;28;20407;-79
2021/06/21 04:17:18;;;;;;;11.57;1.25;;;17.20;99.90;;;;;;5034444;28;20044;-80
2021/06/21 04:19:45;;;;;;;2.58;0.47;;;17.20;99.90;;;;;;5033942;28;20049;-79
2021/06/21 04:22:10;;;;;;;3.78;0.73;;;17.20;99.90;;;;;;5033918;28;20065;-80
2021/06/21 04:24:36;;;;;;;5.25;0.85;;;17.10;99.90;;;;;;5016160;28;20025;-80
2021/06/21 04:27:01;;;;;;;4.68;0.73;;;17.30;99.90;;;;;;5033922;28;20108;-79
2021/06/21 04:29:27;;;;;;;9.10;1.40;;;17.20;99.90;;;;;;5038881;28;20485;-79
2021/06/21 04:31:53;;;;;;;5.75;1.02;;;17.20;99.90;;;;;;5053819;28;20035;-79
2021/06/21 04:34:18;;;;;;;3.78;0.73;;;17.20;99.90;;;;;;5055109;28;20370;-81
2021/06/21 04:36:44;;;;;;;4.68;1.13;;;17.10;99.90;;;;;;5052005;28;20023;-80
2021/06/21 04:39:10;;;;;;;6.63;1.23;;;17.10;99.90;;;;;;5055627;28;20527;-80
2021/06/21 04:41:35;;;;;;;3.45;0.70;;;17.10;99.90;;;;;;5053798;28;20013;-79
2021/06/21 04:44:01;;;;;;;6.78;1.70;;;17.10;99.90;;;;;;5054825;28;20013;-79
2021/06/21 04:46:29;;;;;;;4.50;0.80;;;17.10;99.90;;;;;;5035321;28;20021;-80
2021/06/21 04:48:55;;;;;;;6.13;0.88;;;17.10;99.90;;;;;;5054557;28;20222;-80
2021/06/21 04:51:22;;;;;;;7.05;1.05;;;17.00;99.90;;;;;;5038545;28;20020;-80
2021/06/21 04:53:48;;;;;;;5.20;1.00;;;17.20;99.90;;;;;;5055458;28;20521;-81
2021/06/21 04:56:14;;;;;;;5.00;0.95;;;17.40;99.90;;;;;;5033287;28;20025;-80
2021/06/21 04:58:40;;;;;;;5.07;1.10;;;17.50;99.90;;;;;;5052406;28;20171;-82
2021/06/21 05:01:07;;;;;;;3.70;0.70;;;17.60;99.90;;;;;;5040350;28;20505;-81
2021/06/21 05:03:36;;;;;;;3.72;0.70;;;17.70;99.90;;;;;;5053489;28;20024;-82
2021/06/21 05:06:03;;;;;;;8.25;1.00;;;17.90;99.90;;;;;;5041545;28;20033;-82
2021/06/21 05:08:29;;;;;;;5.25;0.90;;;17.90;99.90;;;;;;5060961;28;20107;-82
2021/06/21 05:10:55;;;;;;;5.45;0.88;;;18.00;99.90;;;;;;5055760;28;20059;-83
2021/06/21 05:13:21;;;;;;;4.63;0.63;;;18.00;99.90;;;;;;5045391;28;20520;-82
2021/06/21 05:15:46;;;;;;;5.13;0.90;;;18.10;99.90;;;;;;5058215;28;20025;-82
2021/06/21 05:18:12;;;;;;;3.30;0.85;;;18.10;99.90;;;;;;5055852;28;20056;-82
2021/06/21 05:20:38;;;;;;;4.25;0.82;;;18.10;99.90;;;;;;5057305;28;20846;-82
2021/06/21 05:23:03;;;;;;;4.65;0.70;;;18.20;99.90;;;;;;5063341;28;20028;-82
2021/06/21 05:25:32;;;;;;;5.00;0.80;;;18.30;99.90;;;;;;5053066;28;20602;-83
2021/06/21 05:27:58;;;;;;;4.43;0.80;;;18.50;99.90;;;;;;5055240;28;20116;-83
2021/06/21 05:30:24;;;;;;;5.78;0.90;;;18.60;99.90;;;;;;5034573;28;20033;-82
2021/06/21 05:32:51;;;;;;;4.57;0.77;;;18.80;99.90;;;;;;5044953;28;20086;-82
2021/06/21 05:35:17;;;;;;;1.73;0.50;;;18.90;99.90;;;;;;5054866;28;20089;-82
2021/06/21 05:37:43;;;;;;;6.68;1.10;;;18.90;99.90;;;;;;5036938;28;20029;-82
2021/06/21 05:40:09;;;;;;;8.88;1.33;;;18.90;99.90;;;;;;5046959;28;20035;-80
2021/06/21 05:42:35;;;;;;;3.08;0.75;;;18.90;99.90;;;;;;5059076;28;20020;-80
2021/06/21 05:45:01;;;;;;;3.58;0.70;;;18.90;99.90;;;;;;5032580;28;20054;-81
2021/06/21 05:47:26;;;;;;;3.45;1.00;;;19.00;99.90;;;;;;5067267;28;20020;-80
2021/06/21 05:49:52;;;;;;;4.40;0.60;;;19.20;99.90;;;;;;5074163;28;20025;-80
2021/06/21 05:52:18;;;;;;;6.90;0.90;;;19.30;99.90;;;;;;5074391;28;20130;-81
2021/06/21 05:54:43;;;;;;;5.53;0.70;;;19.30;99.90;;;;;;5033079;28;20497;-82
2021/06/21 05:57:09;;;;;;;4.53;0.50;;;19.30;99.90;;;;;;5033781;28;20033;-82
2021/06/21 05:59:34;;;;;;;4.15;0.77;;;19.20;99.90;;;;;;5017025;28;20025;-83
2021/06/21 06:02:00;;;;;;;2.67;0.70;;;19.10;99.90;;;;;;5016652;28;20033;-83
2021/06/21 06:04:26;;;;;;;5.50;0.85;;;19.00;99.90;;;;;;5034913;28;20681;-83
2021/06/21 06:06:52;;;;;;;4.05;0.63;;;19.00;99.90;;;;;;5035530;28;20040;-82
2021/06/21 06:09:17;;;;;;;4.35;0.73;;;18.90;99.90;;;;;;5052879;28;20654;-82
2021/06/21 06:11:43;;;;;;;3.40;0.65;;;18.80;99.90;;;;;;5050998;28;20754;-81
2021/06/21 06:14:09;;;;;;;6.25;0.88;;;18.90;99.90;;;;;;5036213;28;22100;-81
2021/06/21 06:16:34;;;;;;;5.53;0.60;;;19.00;99.90;;;;;;5040739;28;20060;-82
2021/06/21 06:19:00;;;;;;;5.18;1.10;;;19.20;99.90;;;;;;5039575;28;20025;-81
2021/06/21 06:21:29;;;;;;;2.42;0.50;;;19.30;99.90;;;;;;5038339;28;20080;-81
2021/06/21 06:23:58;;;;;;;3.85;0.60;;;19.40;99.90;;;;;;5053310;28;20468;-81
2021/06/21 06:26:24;;;;;;;3.58;0.60;;;19.50;99.90;;;;;;5058511;28;20618;-82
2021/06/21 06:28:50;;;;;;;1.75;0.55;;;19.60;99.90;;;;;;5052272;28;20071;-81
2021/06/21 06:31:15;;;;;;;4.32;0.60;;;19.70;99.90;;;;;;5019711;28;20165;-81
2021/06/21 06:33:41;;;;;;;3.28;0.80;;;19.80;99.90;;;;;;5037372;28;20102;-80
2021/06/21 06:36:06;;;;;;;5.25;0.80;;;20.00;99.90;;;;;;5038373;28;20021;-84
2021/06/21 06:38:32;;;;;;;3.50;0.45;;;20.00;99.90;;;;;;5040260;28;20064;-84
2021/06/21 06:41:01;;;;;;;4.25;0.50;;;20.00;99.90;;;;;;5022685;28;20232;-84
2021/06/21 06:43:26;;;;;;;2.75;0.40;;;20.20;99.90;;;;;;5040930;28;20083;-83
2021/06/21 06:45:52;;;;;;;3.05;0.40;;;20.30;99.90;;;;;;5041125;28;20033;-83
2021/06/21 06:48:18;;;;;;;3.53;0.70;;;20.40;99.90;;;;;;5032405;28;20500;-83
2021/06/21 06:50:43;;;;;;;4.28;0.68;;;20.40;99.90;;;;;;5070112;28;20032;-83
2021/06/21 06:53:09;;;;;;;4.78;0.90;;;20.40;99.90;;;;;;5068707;28;20183;-83
2021/06/21 06:58:19;;;;;;;4.68;1.33;;;20.50;99.90;;;;;;5039565;28;20091;-86
2021/06/21 07:00:45;;;;;;;4.25;0.60;;;20.60;99.90;;;;;;5020633;28;20120;-86
2021/06/21 07:03:11;;;;;;;1.77;0.30;;;20.50;99.90;;;;;;5038033;28;20454;-87
2021/06/21 07:05:37;;;;;;;4.10;0.63;;;20.70;99.90;;;;;;5017504;28;20477;-84
2021/06/21 07:08:03;;;;;;;2.95;0.60;;;20.70;99.90;;;;;;5043578;28;20031;-84
2021/06/21 07:10:29;;;;;;;1.92;0.40;;;21.00;99.90;;;;;;5061418;28;20540;-84
2021/06/21 07:12:56;;;;;;;6.32;0.80;;;21.20;99.90;;;;;;5066049;28;20024;-84
2021/06/21 07:15:22;;;;;;;2.22;0.45;;;21.40;99.90;;;;;;5071584;28;20027;-83
2021/06/21 07:17:48;;;;;;;2.78;0.60;;;21.60;99.90;;;;;;5061473;28;20017;-83
2021/06/21 07:20:14;;;;;;;4.07;0.52;;;21.80;99.90;;;;;;5021906;28;20076;-88
2021/06/21 07:22:39;;;;;;;1.95;0.50;;;21.70;99.90;;;;;;5024937;28;20033;-85
2021/06/21 07:25:06;;;;;;;2.25;0.40;;;21.70;99.90;;;;;;5041380;28;20473;-86
2021/06/21 07:27:31;;;;;;;2.40;0.50;;;21.70;99.90;;;;;;5039186;28;20085;-86
2021/06/21 07:29:57;;;;;;;2.88;0.40;;;21.70;99.90;;;;;;5024133;28;20505;-85
2021/06/21 07:32:23;;;;;;;1.58;0.50;;;21.80;99.90;;;;;;5041129;28;20469;-86
2021/06/21 07:34:49;;;;;;;3.80;0.68;;;21.80;99.90;;;;;;5074325;28;20021;-85
2021/06/21 07:37:15;;;;;;;3.55;0.75;;;21.90;99.90;;;;;;5071373;28;20056;-85
2021/06/21 07:39:40;;;;;;;4.18;0.60;;;22.10;99.90;;;;;;5043122;28;20022;-85
2021/06/21 07:42:06;;;;;;;3.33;0.60;;;22.30;99.90;;;;;;5045654;28;20033;-86
2021/06/21 07:44:34;;;;;;;2.35;0.43;;;22.40;99.90;;;;;;5044097;28;20051;-86
2021/06/21 07:47:00;;;;;;;2.80;0.50;;;22.70;99.90;;;;;;5043631;28;20028;-87
2021/06/21 07:49:26;;;;;;;2.05;0.55;;;22.70;99.90;;;;;;5042469;28;20048;-85
2021/06/21 07:51:51;;;;;;;3.65;0.70;;;22.70;99.90;;;;;;5046112;28;20076;-85
2021/06/21 07:54:19;;;;;;;4.20;0.80;;;22.70;99.90;;;;;;5052271;28;20033;-87
2021/06/21 07:56:45;;;;;;;3.38;0.73;;;22.70;99.90;;;;;;5064941;22;20385;-81
2021/06/21 07:59:11;;;;;;;1.30;0.70;;;22.70;99.90;;;;;;5035456;28;20112;-81
2021/06/21 08:01:36;;;;;;;2.58;0.60;;;22.80;99.90;;;;;;5035640;28;20029;-81
2021/06/21 08:04:02;;;;;;;4.10;0.45;;;22.90;99.90;;;;;;5035068;28;20025;-82
2021/06/21 08:06:28;;;;;;;2.75;0.55;;;23.10;99.90;;;;;;5035303;28;20044;-82
2021/06/21 08:08:54;;;;;;;2.05;0.50;;;23.30;99.90;;;;;;5017349;28;20030;-82
2021/06/21 08:11:19;;;;;;;2.55;0.90;;;23.30;99.90;;;;;;5016334;28;20489;-82
2021/06/21 08:13:45;;;;;;;2.65;0.68;;;23.50;99.90;;;;;;5034238;28;20029;-84
2021/06/21 08:16:11;;;;;;;4.63;0.57;;;23.70;99.90;;;;;;5033787;28;20047;-83
2021/06/21 08:18:36;;;;;;;2.97;0.70;;;23.80;99.90;;;;;;5032754;28;20673;-82
2021/06/21 08:21:03;;;;;;;4.20;0.60;;;24.00;99.90;;;;;;5030837;28;20025;-82
2021/06/21 08:23:31;;;;;;;2.70;0.60;;;24.00;99.90;;;;;;5032648;28;20029;-82
2021/06/21 08:25:57;;;;;;;1.38;0.40;;;24.30;99.90;;;;;;5032118;28;20465;-82
2021/06/21 08:28:22;;;;;;;3.22;1.02;;;24.60;99.90;;;;;;5025301;28;20029;-84
2021/06/21 08:30:49;;;;;;;3.78;0.50;;;24.40;99.90;;;;;;5059670;28;20028;-82
2021/06/21 08:33:15;;;;;;;3.90;0.50;;;24.50;99.90;;;;;;5062681;28;20033;-82
2021/06/21 08:35:41;;;;;;;2.85;0.40;;;24.40;99.90;;;;;;5049779;28;20024;-82
2021/06/21 08:38:07;;;;;;;2.97;0.50;;;24.60;99.90;;;;;;5053393;28;20095;-82
2021/06/21 08:40:34;;;;;;;2.45;1.05;;;24.70;99.90;;;;;;5053522;28;20065;-82
2021/06/21 08:43:01;;;;;;;2.42;0.60;;;24.80;99.90;;;;;;5071366;28;20020;-83
2021/06/21 08:45:30;;;;;;;5.70;0.90;;;24.70;99.90;;;;;;5047498;28;20025;-83
2021/06/21 08:47:56;;;;;;;4.13;0.70;;;24.70;99.90;;;;;;5032375;28;20029;-82
2021/06/21 08:50:22;;;;;;;3.70;0.57;;;24.80;99.90;;;;;;5056449;28;20027;-82
2021/06/21 08:52:48;;;;;;;3.00;0.70;;;24.90;99.90;;;;;;5054395;28;20104;-82
2021/06/21 08:55:14;;;;;;;2.58;0.60;;;25.00;99.90;;;;;;5049443;28;20470;-82
2021/06/21 08:57:43;;;;;;;5.65;0.80;;;25.30;99.90;;;;;;5032959;28;20040;-82
2021/06/21 09:00:13;;;;;;;2.88;0.47;;;25.50;99.90;;;;;;5032381;28;20104;-82
2021/06/21 09:02:39;;;;;;;1.83;0.40;;;25.80;99.90;;;;;;5034551;28;20568;-82
2021/06/21 09:05:10;;;;;;;2.22;0.63;;;26.00;99.90;;;;;;5031577;28;20033;-82
2021/06/21 09:07:36;;;;;;;3.85;0.43;;;25.80;99.40;;;;;;5033793;28;20030;-82
2021/06/21 09:10:08;;;;;;;2.92;0.50;;;25.80;99.90;;;;;;5052319;28;20081;-82
2021/06/21 09:12:33;;;;;;;1.70;0.77;;;26.10;99.70;;;;;;5055043;28;20033;-82
2021/06/21 09:15:06;;;;;;;4.40;0.57;;;25.80;97.50;;;;;;5032033;28;20083;-83
2021/06/21 09:17:36;;;;;;;2.42;0.60;;;25.80;98.80;;;;;;5011705;28;20022;-83
2021/06/21 09:20:10;;;;;;;1.13;0.47;;;25.90;96.20;;;;;;5012813;28;20017;-82
2021/06/21 09:22:50;;;;;;;2.25;0.73;;;25.80;96.70;;;;;;5041541;28;20028;-82
2021/06/21 09:25:15;;;;;;;3.30;0.50;;;25.90;97.40;;;;;;5051305;28;20032;-82
2021/06/21 09:27:52;;;;;;;2.25;0.40;;;26.10;96.80;;;;;;5070788;28;20024;-83
2021/06/21 09:30:18;;;;;;;3.08;0.40;;;26.30;95.60;;;;;;5070228;28;20047;-82
2021/06/21 09:32:46;;;;;;;2.65;0.40;;;26.40;95.50;;;;;;5032631;28;20045;-83
2021/06/21 09:35:31;;;;;;;3.03;0.60;;;26.80;95.00;;;;;;5036014;28;20100;-83
2021/06/21 09:37:59;;;;;;;2.50;0.47;;;26.90;96.10;;;;;;5018125;28;20458;-83
2021/06/21 09:40:29;;;;;;;2.67;0.60;;;26.80;95.10;;;;;;5015634;28;20025;-83
2021/06/21 09:42:55;;;;;;;1.33;0.30;;;26.80;93.80;;;;;;5034571;28;20022;-83
2021/06/21 09:45:20;;;;;;;2.88;0.60;;;26.80;93.60;;;;;;5016920;28;20039;-82
2021/06/21 09:47:46;;;;;;;1.58;0.50;;;26.90;93.70;;;;;;5017779;28;20048;-82
2021/06/21 09:50:38;;;;;;;1.27;0.40;;;26.90;94.20;;;;;;5026386;28;20405;-82
2021/06/21 09:53:04;;;;;;;2.95;0.45;;;26.90;93.80;;;;;;5031800;28;20577;-82
2021/06/21 09:55:38;;;;;;;2.70;0.50;;;27.10;93.80;;;;;;5035049;28;20086;-83
2021/06/21 09:58:05;;;;;;;3.70;0.40;;;27.20;94.10;;;;;;5034423;28;20130;-82
2021/06/21 10:00:31;;;;;;;1.65;0.43;;;27.50;94.10;;;;;;5034434;28;20554;-82
2021/06/21 10:03:12;;;;;;;3.45;0.40;;;27.80;92.90;;;;;;5034483;28;20541;-83
2021/06/21 10:05:42;;;;;;;2.80;0.60;;;27.90;91.50;;;;;;5033882;28;20036;-82
2021/06/21 10:08:10;;;;;;;1.90;0.65;;;28.10;91.80;;;;;;5018865;28;20041;-85
2021/06/21 10:10:35;;;;;;;4.95;0.50;;;28.30;90.60;;;;;;5046580;28;20378;-85
2021/06/21 10:13:02;;;;;;;1.50;0.40;;;28.20;91.40;;;;;;5031158;28;20091;-85
2021/06/21 10:15:28;;;;;;;2.40;0.60;;;27.70;91.60;;;;;;5039920;28;20031;-85
2021/06/21 10:17:54;;;;;;;4.28;0.65;;;27.90;91.90;;;;;;5064279;28;20373;-84
2021/06/21 10:20:20;;;;;;;1.95;0.60;;;28.40;92.90;;;;;;5072614;28;20025;-85
2021/06/21 10:22:45;;;;;;;3.97;0.73;;;28.40;90.90;;;;;;5052096;28;20030;-85
2021/06/21 10:25:12;;;;;;;1.90;0.47;;;28.60;90.40;;;;;;5030854;28;20060;-85
2021/06/21 10:27:41;;;;;;;1.33;0.38;;;28.70;90.50;;;;;;5031642;28;20537;-85
2021/06/21 10:30:10;;;;;;;3.72;0.52;;;28.90;90.70;;;;;;5031774;28;20266;-85
2021/06/21 10:32:36;;;;;;;3.40;0.70;;;29.00;89.70;;;;;;5031424;28;20087;-85
2021/06/21 10:35:02;;;;;;;2.30;0.60;;;29.30;86.90;;;;;;5032121;28;20090;-85
2021/06/21 10:37:28;;;;;;;6.55;1.23;;;28.70;86.70;;;;;;5028248;28;20049;-85
2021/06/21 10:40:09;;;;;;;3.03;1.02;;;28.70;86.10;;;;;;5014678;28;20068;-85
2021/06/21 10:42:41;;;;;;;1.33;0.45;;;28.60;84.80;;;;;;5030421;28;20029;-85
2021/06/21 10:45:16;;;;;;;1.55;0.50;;;28.50;87.40;;;;;;5036969;28;20044;-85
2021/06/21 10:47:43;;;;;;;1.77;0.50;;;28.40;86.10;;;;;;5034354;28;20033;-85
2021/06/21 10:50:24;;;;;;;2.13;0.43;;;28.60;85.90;;;;;;5051704;28;20440;-85
2021/06/21 10:52:52;;;;;;;2.20;0.60;;;28.70;84.10;;;;;;5033510;28;20032;-85
2021/06/21 10:55:30;;;;;;;1.90;0.52;;;28.60;85.30;;;;;;5034556;28;20040;-85
2021/06/21 10:57:57;;;;;;;2.92;0.57;;;28.70;84.70;;;;;;5042093;28;20036;-85
2021/06/21 11:00:44;;;;;;;2.00;0.50;;;28.80;84.60;;;;;;5040566;28;20020;-85
2021/06/21 11:03:34;;;;;;;2.72;0.57;;;29.00;85.10;;;;;;5052297;28;20017;-85
2021/06/21 11:06:05;;;;;;;1.73;0.53;;;29.30;82.00;;;;;;5036290;28;20029;-84
2021/06/21 11:08:34;;;;;;;;;;;29.00;80.30;;;;;;5060363;28;20087;-85
2021/06/21 11:11:01;;;;;;;1.50;0.38;;;29.30;81.40;;;;;;5063681;28;19972;-85
2021/06/21 11:13:32;;;;;;;1.45;0.30;;;29.50;83.50;;;;;;5043631;28;20037;-85
2021/06/21 11:16:20;;;;;;;2.30;0.45;;;29.50;81.50;;;;;;5038512;28;20043;-85
2021/06/21 11:18:51;;;;;;;2.95;0.55;;;29.40;77.90;;;;;;5058451;28;20377;-85
2021/06/21 11:21:20;;;;;;;9.20;0.77;;;29.30;80.30;;;;;;5034125;28;20392;-85
2021/06/21 11:23:52;;;;;;;2.08;0.50;;;29.70;79.90;;;;;;5050241;28;20060;-85
2021/06/21 11:26:17;;;;;;;2.15;0.40;;;30.20;80.80;;;;;;5061973;28;20031;-85
2021/06/21 11:28:48;;;;;;;1.65;0.30;;;30.50;79.70;;;;;;5058916;28;20122;-85
2021/06/21 11:31:23;;;;;;;;;;;30.30;78.70;;;;;;5036084;28;20116;-89
2021/06/21 11:33:56;;;;;;;3.13;0.60;;;30.20;79.50;;;;;;5035373;28;20490;-85
2021/06/21 11:36:57;;;;;;;1.15;0.40;;;30.60;78.00;;;;;;5052492;28;20032;-85
2021/06/21 11:39:28;;;;;;;1.58;0.30;;;31.30;75.30;;;;;;4970509;28;20030;-85
2021/06/21 11:41:58;;;;;;;;;;;31.20;75.90;;;;;;5033843;28;20060;-84
2021/06/21 11:44:50;;;;;;;6.82;0.50;;;31.00;75.40;;;;;;5048578;28;19905;-85
2021/06/21 11:47:21;;;;;;;2.58;0.40;;;30.30;74.00;;;;;;5030639;28;20036;-85
2021/06/21 11:49:48;;;;;;;;;;;29.80;76.50;;;;;;5030583;28;20029;-84
2021/06/21 11:52:25;;;;;;;3.35;0.50;;;29.70;79.10;;;;;;5046295;28;19905;-85
2021/06/21 11:54:53;;;;;;;1.40;0.38;;;30.10;78.60;;;;;;5029892;28;20025;-85
2021/06/21 11:57:22;;;;;;;1.85;0.38;;;30.90;78.50;;;;;;5032387;28;20473;-83
2021/06/21 11:59:50;;;;;;;2.72;0.47;;;31.70;77.50;;;;;;5032039;28;20079;-84
2021/06/21 12:02:22;;;;;;;0.95;0.50;;;31.80;72.90;;;;;;5054771;28;20013;-83
2021/06/21 12:04:49;;;;;;;4.53;0.60;;;32.00;74.00;;;;;;5036057;28;20572;-83
2021/06/21 12:07:35;;;;;;;1.75;0.45;;;31.80;70.90;;;;;;5036190;28;20660;-82
2021/06/21 12:10:08;;;;;;;1.20;0.38;;;31.80;69.70;;;;;;5036710;28;20385;-82
2021/06/21 12:12:36;;;;;;;2.03;0.47;;;31.10;68.70;;;;;;5054335;28;20026;-82
2021/06/21 12:15:04;;;;;;;2.85;0.50;;;30.40;71.50;;;;;;5040381;28;20075;-82
2021/06/21 12:17:31;;;;;;;2.58;0.45;;;30.00;74.40;;;;;;5053585;28;20028;-83
2021/06/21 12:20:15;;;;;;;5.03;1.10;;;29.30;74.10;;;;;;5035803;28;20025;-84
2021/06/21 12:22:51;;;;;;;3.08;0.47;;;29.10;75.60;;;;;;5029374;28;20490;-83
2021/06/21 12:25:32;;;;;;;4.47;0.70;;;28.80;77.30;;;;;;5033527;28;20025;-83
2021/06/21 12:28:15;;;;;;;2.35;0.60;;;28.60;75.50;;;;;;5049984;28;20028;-83
2021/06/21 12:30:56;;;;;;;0.98;0.40;;;28.40;75.60;;;;;;5047424;28;20029;-83
2021/06/21 12:33:24;;;;;;;;;;;28.10;76.40;;;;;;5053149;28;20032;-83
2021/06/21 12:36:19;;;;;;;2.28;0.40;;;27.80;77.40;;;;;;5034162;28;19916;-83
2021/06/21 12:38:50;;;;;;;2.65;0.60;;;28.30;79.10;;;;;;5045340;28;20487;-83
2021/06/21 12:41:28;;;;;;;3.15;0.50;;;28.50;76.10;;;;;;5049049;28;20029;-83
2021/06/21 12:43:55;;;;;;;1.00;0.30;;;28.70;76.40;;;;;;5057487;28;20021;-83
2021/06/21 12:46:22;;;;;;;1.67;0.50;;;29.10;73.50;;;;;;5070001;28;20752;-83
2021/06/21 12:48:48;;;;;;;0.88;0.30;;;28.90;73.60;;;;;;5042311;28;20033;-83
2021/06/21 12:51:16;;;;;;;2.08;0.52;;;28.90;73.70;;;;;;5034897;28;20028;-83
2021/06/21 12:53:45;;;;;;;2.08;0.55;;;29.50;73.20;;;;;;5060147;28;20056;-83
2021/06/21 12:56:26;;;;;;;0.98;0.30;;;30.20;72.00;;;;;;5050289;28;20400;-83
2021/06/21 12:58:53;;;;;;;3.78;0.60;;;30.70;71.20;;;;;;5017387;28;20140;-83